sensor_id;sensor_type;location;lat;lon;timestamp;temperature;humidity
52943;DHT22;38809;53.300;6.614;2022-12-24T00:00:19;6.10;99.90
52943;DHT22;38809;53.300;6.614;2022-12-24T00:02:45;6.10;99.90
52943;DHT22;38809;53.300;6.614;2022-12-24T00:05:11;6.10;99.90
52943;DHT22;38809;53.300;6.614;2022-12-24T00:07:36;6.10;99.90
52943;DHT22;38809;53.300;6.614;2022-12-24T00:10:03;6.10;99.90
52943;DHT22;38809;53.300;6.614;2022-12-24T00:12:29;6.10;99.90
52943;DHT22;38809;53.300;6.614;2022-12-24T00:14:55;6.10;99.90
52943;DHT22;38809;53.300;6.614;2022-12-24T00:17:21;6.10;99.90
52943;DHT22;38809;53.300;6.614;2022-12-24T00:19:46;6.10;99.90
52943;DHT22;38809;53.300;6.614;2022-12-24T00:22:12;6.10;99.90
52943;DHT22;38809;53.300;6.614;2022-12-24T00:24:38;6.10;99.90
52943;DHT22;38809;53.300;6.614;2022-12-24T00:27:04;6.10;99.90
52943;DHT22;38809;53.300;6.614;2022-12-24T00:29:31;6.10;99.90
52943;DHT22;38809;53.300;6.614;2022-12-24T00:31:57;6.10;99.90
52943;DHT22;38809;53.300;6.614;2022-12-24T00:34:23;6.10;99.90
52943;DHT22;38809;53.300;6.614;2022-12-24T00:36:49;6.10;99.90
52943;DHT22;38809;53.300;6.614;2022-12-24T00:39:15;6.20;99.90
52943;DHT22;38809;53.300;6.614;2022-12-24T00:41:41;6.50;99.90
52943;DHT22;38809;53.300;6.614;2022-12-24T00:44:07;6.10;99.90
52943;DHT22;38809;53.300;6.614;2022-12-24T00:46:38;6.30;99.90
52943;DHT22;38809;53.300;6.614;2022-12-24T00:49:05;6.10;99.90
52943;DHT22;38809;53.300;6.614;2022-12-24T00:51:32;6.10;99.90
52943;DHT22;38809;53.300;6.614;2022-12-24T00:53:57;6.10;99.90
52943;DHT22;38809;53.300;6.614;2022-12-24T00:56:23;6.10;99.90
52943;DHT22;38809;53.300;6.614;2022-12-24T00:58:49;6.10;99.90
52943;DHT22;38809;53.300;6.614;2022-12-24T01:01:16;6.10;99.90
52943;DHT22;38809;53.300;6.614;2022-12-24T01:03:41;6.10;99.90
52943;DHT22;38809;53.300;6.614;2022-12-24T01:06:08;6.10;99.90
52943;DHT22;38809;53.300;6.614;2022-12-24T01:08:35;6.10;99.90
52943;DHT22;38809;53.300;6.614;2022-12-24T01:11:02;6.10;99.90
52943;DHT22;38809;53.300;6.614;2022-12-24T01:13:28;6.10;99.90
52943;DHT22;38809;53.300;6.614;2022-12-24T01:15:54;6.10;99.90
52943;DHT22;38809;53.300;6.614;2022-12-24T01:18:20;6.10;99.90
52943;DHT22;38809;53.300;6.614;2022-12-24T01:20:53;6.10;99.90
52943;DHT22;38809;53.300;6.614;2022-12-24T01:23:19;6.10;99.90
52943;DHT22;38809;53.300;6.614;2022-12-24T01:25:45;6.10;99.90
52943;DHT22;38809;53.300;6.614;2022-12-24T01:28:10;6.10;99.90
52943;DHT22;38809;53.300;6.614;2022-12-24T01:30:36;6.10;99.90
52943;DHT22;38809;53.300;6.614;2022-12-24T01:33:02;6.10;99.90
52943;DHT22;38809;53.300;6.614;2022-12-24T01:35:27;6.10;99.90
52943;DHT22;38809;53.300;6.614;2022-12-24T01:37:53;6.10;99.90
52943;DHT22;38809;53.300;6.614;2022-12-24T01:40:19;6.60;99.90
52943;DHT22;38809;53.300;6.614;2022-12-24T01:43:15;6.30;99.90
52943;DHT22;38809;53.300;6.614;2022-12-24T01:46:10;6.20;99.90
52943;DHT22;38809;53.300;6.614;2022-12-24T01:48:45;6.10;99.90
52943;DHT22;38809;53.300;6.614;2022-12-24T01:53:53;6.20;99.90
52943;DHT22;38809;53.300;6.614;2022-12-24T01:56:22;6.20;99.90
52943;DHT22;38809;53.300;6.614;2022-12-24T01:58:54;5.30;99.90
52943;DHT22;38809;53.300;6.614;2022-12-24T02:01:22;6.20;99.90
52943;DHT22;38809;53.300;6.614;2022-12-24T02:03:47;6.20;99.90
52943;DHT22;38809;53.300;6.614;2022-12-24T02:06:14;6.80;99.90
52943;DHT22;38809;53.300;6.614;2022-12-24T02:08:41;6.40;99.90
52943;DHT22;38809;53.300;6.614;2022-12-24T02:11:19;6.50;99.90
52943;DHT22;38809;53.300;6.614;2022-12-24T02:13:50;6.20;99.90
52943;DHT22;38809;53.300;6.614;2022-12-24T02:16:31;6.20;99.90
52943;DHT22;38809;53.300;6.614;2022-12-24T02:25:00;6.20;99.90
52943;DHT22;38809;53.300;6.614;2022-12-24T02:30:54;6.30;99.90
52943;DHT22;38809;53.300;6.614;2022-12-24T02:40:54;6.30;99.90
52943;DHT22;38809;53.300;6.614;2022-12-24T02:43:30;6.30;99.90
52943;DHT22;38809;53.300;6.614;2022-12-24T02:46:00;6.30;99.90
52943;DHT22;38809;53.300;6.614;2022-12-24T02:48:27;6.30;99.90
52943;DHT22;38809;53.300;6.614;2022-12-24T02:51:01;6.30;99.90
52943;DHT22;38809;53.300;6.614;2022-12-24T02:53:29;6.30;99.90
52943;DHT22;38809;53.300;6.614;2022-12-24T02:58:58;6.30;99.90
52943;DHT22;38809;53.300;6.614;2022-12-24T03:01:34;6.30;99.90
52943;DHT22;38809;53.300;6.614;2022-12-24T03:06:55;6.30;99.90
52943;DHT22;38809;53.300;6.614;2022-12-24T03:09:34;6.20;99.90
52943;DHT22;38809;53.300;6.614;2022-12-24T03:12:19;6.20;99.90
52943;DHT22;38809;53.300;6.614;2022-12-24T03:14:47;6.30;99.90
52943;DHT22;38809;53.300;6.614;2022-12-24T03:17:14;6.30;99.90
52943;DHT22;38809;53.300;6.614;2022-12-24T03:19:41;6.30;99.90
52943;DHT22;38809;53.300;6.614;2022-12-24T03:22:08;6.30;99.90
52943;DHT22;38809;53.300;6.614;2022-12-24T03:24:36;6.20;99.90
52943;DHT22;38809;53.300;6.614;2022-12-24T03:27:04;6.30;99.90
52943;DHT22;38809;53.300;6.614;2022-12-24T03:29:31;6.30;99.90
52943;DHT22;38809;53.300;6.614;2022-12-24T03:32:01;6.20;99.90
52943;DHT22;38809;53.300;6.614;2022-12-24T03:34:28;6.30;99.90
52943;DHT22;38809;53.300;6.614;2022-12-24T03:36:54;6.30;99.90
52943;DHT22;38809;53.300;6.614;2022-12-24T03:39:20;6.30;99.90
52943;DHT22;38809;53.300;6.614;2022-12-24T03:41:46;6.30;99.90
52943;DHT22;38809;53.300;6.614;2022-12-24T03:44:12;6.30;99.90
52943;DHT22;38809;53.300;6.614;2022-12-24T03:46:38;6.20;99.90
52943;DHT22;38809;53.300;6.614;2022-12-24T03:49:04;6.30;99.90
52943;DHT22;38809;53.300;6.614;2022-12-24T03:51:29;6.30;99.90
52943;DHT22;38809;53.300;6.614;2022-12-24T03:53:56;6.30;99.90
52943;DHT22;38809;53.300;6.614;2022-12-24T03:56:22;6.30;99.90
52943;DHT22;38809;53.300;6.614;2022-12-24T03:58:48;6.30;99.90
52943;DHT22;38809;53.300;6.614;2022-12-24T04:01:15;6.40;99.90
52943;DHT22;38809;53.300;6.614;2022-12-24T04:03:41;6.30;99.90
52943;DHT22;38809;53.300;6.614;2022-12-24T04:06:12;6.40;99.90
52943;DHT22;38809;53.300;6.614;2022-12-24T04:08:39;6.40;99.90
52943;DHT22;38809;53.300;6.614;2022-12-24T04:11:06;6.50;99.90
52943;DHT22;38809;53.300;6.614;2022-12-24T04:13:32;6.50;99.90
52943;DHT22;38809;53.300;6.614;2022-12-24T04:16:09;6.50;99.90
52943;DHT22;38809;53.300;6.614;2022-12-24T04:18:36;6.60;99.90
52943;DHT22;38809;53.300;6.614;2022-12-24T04:21:02;6.60;99.90
52943;DHT22;38809;53.300;6.614;2022-12-24T04:23:32;6.70;99.90
52943;DHT22;38809;53.300;6.614;2022-12-24T04:26:00;6.60;99.90
52943;DHT22;38809;53.300;6.614;2022-12-24T04:28:27;6.70;99.90
52943;DHT22;38809;53.300;6.614;2022-12-24T04:30:57;6.70;99.90
52943;DHT22;38809;53.300;6.614;2022-12-24T04:33:24;6.90;99.90
52943;DHT22;38809;53.300;6.614;2022-12-24T04:35:49;6.90;99.90
52943;DHT22;38809;53.300;6.614;2022-12-24T04:38:15;6.90;99.90
52943;DHT22;38809;53.300;6.614;2022-12-24T04:40:41;7.00;99.90
52943;DHT22;38809;53.300;6.614;2022-12-24T04:43:06;7.00;99.90
52943;DHT22;38809;53.300;6.614;2022-12-24T04:45:32;7.00;99.90
52943;DHT22;38809;53.300;6.614;2022-12-24T04:47:58;7.00;99.90
52943;DHT22;38809;53.300;6.614;2022-12-24T04:50:23;7.20;99.90
52943;DHT22;38809;53.300;6.614;2022-12-24T04:52:49;7.20;99.90
52943;DHT22;38809;53.300;6.614;2022-12-24T04:55:15;7.20;99.90
52943;DHT22;38809;53.300;6.614;2022-12-24T04:57:40;7.20;99.90
52943;DHT22;38809;53.300;6.614;2022-12-24T05:00:07;7.20;99.90
52943;DHT22;38809;53.300;6.614;2022-12-24T05:02:34;7.30;99.90
52943;DHT22;38809;53.300;6.614;2022-12-24T05:05:00;7.40;99.90
52943;DHT22;38809;53.300;6.614;2022-12-24T05:07:26;7.50;99.90
52943;DHT22;38809;53.300;6.614;2022-12-24T05:09:51;7.40;99.90
52943;DHT22;38809;53.300;6.614;2022-12-24T05:12:17;8.20;99.90
52943;DHT22;38809;53.300;6.614;2022-12-24T05:14:43;7.50;99.90
52943;DHT22;38809;53.300;6.614;2022-12-24T05:17:09;7.50;99.90
52943;DHT22;38809;53.300;6.614;2022-12-24T05:19:34;7.50;99.90
52943;DHT22;38809;53.300;6.614;2022-12-24T05:22:00;7.50;99.90
52943;DHT22;38809;53.300;6.614;2022-12-24T05:24:44;7.50;99.90
52943;DHT22;38809;53.300;6.614;2022-12-24T05:27:29;7.40;99.90
52943;DHT22;38809;53.300;6.614;2022-12-24T05:29:55;7.40;99.90
52943;DHT22;38809;53.300;6.614;2022-12-24T05:32:20;7.50;99.90
52943;DHT22;38809;53.300;6.614;2022-12-24T05:34:46;7.40;99.90
52943;DHT22;38809;53.300;6.614;2022-12-24T05:37:12;7.60;99.90
52943;DHT22;38809;53.300;6.614;2022-12-24T05:39:37;7.50;99.90
52943;DHT22;38809;53.300;6.614;2022-12-24T05:42:03;7.40;99.90
52943;DHT22;38809;53.300;6.614;2022-12-24T05:44:29;7.50;99.90
52943;DHT22;38809;53.300;6.614;2022-12-24T05:46:54;7.50;99.90
52943;DHT22;38809;53.300;6.614;2022-12-24T05:49:20;7.60;99.90
52943;DHT22;38809;53.300;6.614;2022-12-24T05:51:46;7.60;99.90
52943;DHT22;38809;53.300;6.614;2022-12-24T05:54:12;7.60;99.90
52943;DHT22;38809;53.300;6.614;2022-12-24T05:56:37;7.70;99.90
52943;DHT22;38809;53.300;6.614;2022-12-24T05:59:03;7.60;99.90
52943;DHT22;38809;53.300;6.614;2022-12-24T06:01:29;7.60;99.90
52943;DHT22;38809;53.300;6.614;2022-12-24T06:03:55;7.60;99.90
52943;DHT22;38809;53.300;6.614;2022-12-24T06:06:25;7.60;99.90
52943;DHT22;38809;53.300;6.614;2022-12-24T06:08:52;7.70;99.90
52943;DHT22;38809;53.300;6.614;2022-12-24T06:11:21;7.70;99.90
52943;DHT22;38809;53.300;6.614;2022-12-24T06:13:47;7.70;99.90
52943;DHT22;38809;53.300;6.614;2022-12-24T06:16:15;7.70;99.90
52943;DHT22;38809;53.300;6.614;2022-12-24T06:18:41;7.60;99.90
52943;DHT22;38809;53.300;6.614;2022-12-24T06:21:07;7.70;99.90
52943;DHT22;38809;53.300;6.614;2022-12-24T06:23:35;7.70;99.90
52943;DHT22;38809;53.300;6.614;2022-12-24T06:26:02;7.70;99.90
52943;DHT22;38809;53.300;6.614;2022-12-24T06:28:30;7.70;99.90
52943;DHT22;38809;53.300;6.614;2022-12-24T06:30:56;7.90;99.90
52943;DHT22;38809;53.300;6.614;2022-12-24T06:33:22;7.70;99.90
52943;DHT22;38809;53.300;6.614;2022-12-24T06:35:48;7.70;99.90
52943;DHT22;38809;53.300;6.614;2022-12-24T06:38:14;7.80;99.90
52943;DHT22;38809;53.300;6.614;2022-12-24T06:40:40;7.70;99.90
52943;DHT22;38809;53.300;6.614;2022-12-24T06:43:06;7.70;99.90
52943;DHT22;38809;53.300;6.614;2022-12-24T06:45:32;7.70;99.90
52943;DHT22;38809;53.300;6.614;2022-12-24T06:47:58;7.80;99.90
52943;DHT22;38809;53.300;6.614;2022-12-24T06:50:24;7.80;99.90
52943;DHT22;38809;53.300;6.614;2022-12-24T06:52:50;7.80;99.90
52943;DHT22;38809;53.300;6.614;2022-12-24T06:55:16;7.80;99.90
52943;DHT22;38809;53.300;6.614;2022-12-24T06:57:42;7.80;99.90
52943;DHT22;38809;53.300;6.614;2022-12-24T07:00:09;7.80;99.90
52943;DHT22;38809;53.300;6.614;2022-12-24T07:02:39;7.80;99.90
52943;DHT22;38809;53.300;6.614;2022-12-24T07:05:05;7.90;99.90
52943;DHT22;38809;53.300;6.614;2022-12-24T07:07:31;7.90;99.90
52943;DHT22;38809;53.300;6.614;2022-12-24T07:09:57;7.90;99.90
52943;DHT22;38809;53.300;6.614;2022-12-24T07:12:22;7.80;99.90
52943;DHT22;38809;53.300;6.614;2022-12-24T07:14:48;7.90;99.90
52943;DHT22;38809;53.300;6.614;2022-12-24T07:17:14;7.90;99.90
52943;DHT22;38809;53.300;6.614;2022-12-24T07:19:39;7.90;99.90
52943;DHT22;38809;53.300;6.614;2022-12-24T07:22:05;7.90;99.90
52943;DHT22;38809;53.300;6.614;2022-12-24T07:24:31;7.80;99.90
52943;DHT22;38809;53.300;6.614;2022-12-24T07:26:56;7.90;99.90
52943;DHT22;38809;53.300;6.614;2022-12-24T07:29:22;7.90;99.90
52943;DHT22;38809;53.300;6.614;2022-12-24T07:31:48;7.80;99.90
52943;DHT22;38809;53.300;6.614;2022-12-24T07:34:13;7.80;99.90
52943;DHT22;38809;53.300;6.614;2022-12-24T07:36:39;7.80;99.90
52943;DHT22;38809;53.300;6.614;2022-12-24T07:39:05;7.80;99.90
52943;DHT22;38809;53.300;6.614;2022-12-24T07:41:30;7.80;99.90
52943;DHT22;38809;53.300;6.614;2022-12-24T07:43:56;7.80;99.90
52943;DHT22;38809;53.300;6.614;2022-12-24T07:46:22;7.80;99.90
52943;DHT22;38809;53.300;6.614;2022-12-24T07:48:47;7.80;99.90
52943;DHT22;38809;53.300;6.614;2022-12-24T07:51:13;7.80;99.90
52943;DHT22;38809;53.300;6.614;2022-12-24T07:53:39;7.70;99.90
52943;DHT22;38809;53.300;6.614;2022-12-24T07:56:15;7.80;99.90
52943;DHT22;38809;53.300;6.614;2022-12-24T07:58:41;7.70;99.90
52943;DHT22;38809;53.300;6.614;2022-12-24T08:01:07;7.70;99.90
52943;DHT22;38809;53.300;6.614;2022-12-24T08:03:33;8.00;99.90
52943;DHT22;38809;53.300;6.614;2022-12-24T08:05:59;7.80;99.90
52943;DHT22;38809;53.300;6.614;2022-12-24T08:08:25;7.70;99.90
52943;DHT22;38809;53.300;6.614;2022-12-24T08:10:51;7.70;99.90
52943;DHT22;38809;53.300;6.614;2022-12-24T08:13:17;7.60;99.90
52943;DHT22;38809;53.300;6.614;2022-12-24T08:15:44;7.60;99.90
52943;DHT22;38809;53.300;6.614;2022-12-24T08:18:10;7.70;99.90
52943;DHT22;38809;53.300;6.614;2022-12-24T08:20:37;7.70;99.90
52943;DHT22;38809;53.300;6.614;2022-12-24T08:23:04;7.70;99.90
52943;DHT22;38809;53.300;6.614;2022-12-24T08:25:29;7.80;99.90
52943;DHT22;38809;53.300;6.614;2022-12-24T08:27:56;7.70;99.90
52943;DHT22;38809;53.300;6.614;2022-12-24T08:30:23;7.70;99.90
52943;DHT22;38809;53.300;6.614;2022-12-24T08:32:48;7.70;99.90
52943;DHT22;38809;53.300;6.614;2022-12-24T08:35:14;7.70;99.90
52943;DHT22;38809;53.300;6.614;2022-12-24T08:37:40;7.70;99.90
52943;DHT22;38809;53.300;6.614;2022-12-24T08:40:06;7.80;99.90
52943;DHT22;38809;53.300;6.614;2022-12-24T08:42:32;7.80;99.90
52943;DHT22;38809;53.300;6.614;2022-12-24T08:44:58;7.80;99.90
52943;DHT22;38809;53.300;6.614;2022-12-24T08:47:24;7.80;99.90
52943;DHT22;38809;53.300;6.614;2022-12-24T08:49:49;7.90;99.90
52943;DHT22;38809;53.300;6.614;2022-12-24T08:52:15;7.90;99.90
52943;DHT22;38809;53.300;6.614;2022-12-24T08:54:41;8.00;99.90
52943;DHT22;38809;53.300;6.614;2022-12-24T08:57:06;8.10;99.90
52943;DHT22;38809;53.300;6.614;2022-12-24T08:59:32;8.00;99.90
52943;DHT22;38809;53.300;6.614;2022-12-24T09:01:58;8.10;99.90
52943;DHT22;38809;53.300;6.614;2022-12-24T09:04:24;8.10;99.90
52943;DHT22;38809;53.300;6.614;2022-12-24T09:06:49;8.20;99.90
52943;DHT22;38809;53.300;6.614;2022-12-24T09:09:15;8.20;99.90
52943;DHT22;38809;53.300;6.614;2022-12-24T09:11:41;8.20;99.90
52943;DHT22;38809;53.300;6.614;2022-12-24T09:14:07;8.20;99.90
52943;DHT22;38809;53.300;6.614;2022-12-24T09:16:32;8.30;99.90
52943;DHT22;38809;53.300;6.614;2022-12-24T09:18:58;8.20;99.90
52943;DHT22;38809;53.300;6.614;2022-12-24T09:21:24;8.20;99.90
52943;DHT22;38809;53.300;6.614;2022-12-24T09:23:49;8.30;99.90
52943;DHT22;38809;53.300;6.614;2022-12-24T09:26:18;8.30;99.90
52943;DHT22;38809;53.300;6.614;2022-12-24T09:28:44;8.30;99.90
52943;DHT22;38809;53.300;6.614;2022-12-24T09:31:11;8.30;99.90
52943;DHT22;38809;53.300;6.614;2022-12-24T09:33:38;8.30;99.90
52943;DHT22;38809;53.300;6.614;2022-12-24T09:36:05;8.40;99.90
52943;DHT22;38809;53.300;6.614;2022-12-24T09:38:31;8.30;99.90
52943;DHT22;38809;53.300;6.614;2022-12-24T09:40:58;8.30;99.90
52943;DHT22;38809;53.300;6.614;2022-12-24T09:43:28;8.30;99.90
52943;DHT22;38809;53.300;6.614;2022-12-24T09:48:42;8.30;99.90
52943;DHT22;38809;53.300;6.614;2022-12-24T09:51:14;8.30;99.90
52943;DHT22;38809;53.300;6.614;2022-12-24T09:53:50;8.30;99.90
52943;DHT22;38809;53.300;6.614;2022-12-24T09:56:21;8.30;99.90
52943;DHT22;38809;53.300;6.614;2022-12-24T09:59:09;8.40;99.90
52943;DHT22;38809;53.300;6.614;2022-12-24T10:01:36;8.40;99.90
52943;DHT22;38809;53.300;6.614;2022-12-24T10:04:19;8.50;99.90
52943;DHT22;38809;53.300;6.614;2022-12-24T10:15:09;8.50;99.90
52943;DHT22;38809;53.300;6.614;2022-12-24T10:21:15;8.50;99.90
52943;DHT22;38809;53.300;6.614;2022-12-24T10:23:46;8.60;99.90
52943;DHT22;38809;53.300;6.614;2022-12-24T10:28:51;8.60;99.90
52943;DHT22;38809;53.300;6.614;2022-12-24T10:31:40;8.80;99.90
52943;DHT22;38809;53.300;6.614;2022-12-24T10:34:18;8.90;99.90
52943;DHT22;38809;53.300;6.614;2022-12-24T10:36:44;8.90;99.90
52943;DHT22;38809;53.300;6.614;2022-12-24T10:39:17;9.00;99.90
52943;DHT22;38809;53.300;6.614;2022-12-24T10:41:46;8.90;99.90
52943;DHT22;38809;53.300;6.614;2022-12-24T10:44:19;9.00;99.90
52943;DHT22;38809;53.300;6.614;2022-12-24T10:46:46;9.00;99.90
52943;DHT22;38809;53.300;6.614;2022-12-24T10:49:19;9.00;99.90
52943;DHT22;38809;53.300;6.614;2022-12-24T10:52:01;9.10;99.90
52943;DHT22;38809;53.300;6.614;2022-12-24T10:54:28;9.10;99.90
52943;DHT22;38809;53.300;6.614;2022-12-24T10:57:00;9.10;99.90
52943;DHT22;38809;53.300;6.614;2022-12-24T10:59:30;9.20;99.90
52943;DHT22;38809;53.300;6.614;2022-12-24T11:01:59;9.20;99.90
52943;DHT22;38809;53.300;6.614;2022-12-24T11:04:28;9.20;99.90
52943;DHT22;38809;53.300;6.614;2022-12-24T11:07:00;9.20;99.90
52943;DHT22;38809;53.300;6.614;2022-12-24T11:11:57;9.30;99.90
52943;DHT22;38809;53.300;6.614;2022-12-24T11:14:23;9.20;99.90
52943;DHT22;38809;53.300;6.614;2022-12-24T11:16:53;9.30;99.90
52943;DHT22;38809;53.300;6.614;2022-12-24T11:19:46;9.40;99.90
52943;DHT22;38809;53.300;6.614;2022-12-24T11:22:20;9.40;99.90
52943;DHT22;38809;53.300;6.614;2022-12-24T11:30:27;9.40;99.90
52943;DHT22;38809;53.300;6.614;2022-12-24T11:35:26;9.40;99.90
52943;DHT22;38809;53.300;6.614;2022-12-24T11:40:35;9.30;99.90
52943;DHT22;38809;53.300;6.614;2022-12-24T11:43:03;9.40;99.90
52943;DHT22;38809;53.300;6.614;2022-12-24T11:45:30;9.40;99.90
52943;DHT22;38809;53.300;6.614;2022-12-24T11:47:57;9.40;99.90
52943;DHT22;38809;53.300;6.614;2022-12-24T11:50:27;9.40;99.90
52943;DHT22;38809;53.300;6.614;2022-12-24T11:58:12;9.40;99.90
52943;DHT22;38809;53.300;6.614;2022-12-24T12:00:39;9.40;99.90
52943;DHT22;38809;53.300;6.614;2022-12-24T12:03:19;9.40;99.90
52943;DHT22;38809;53.300;6.614;2022-12-24T12:05:47;9.50;99.90
52943;DHT22;38809;53.300;6.614;2022-12-24T12:08:17;9.50;99.90
52943;DHT22;38809;53.300;6.614;2022-12-24T12:10:44;9.40;99.90
52943;DHT22;38809;53.300;6.614;2022-12-24T12:13:28;9.40;99.90
52943;DHT22;38809;53.300;6.614;2022-12-24T12:16:10;9.40;99.90
52943;DHT22;38809;53.300;6.614;2022-12-24T12:18:41;9.40;99.90
52943;DHT22;38809;53.300;6.614;2022-12-24T12:21:18;9.50;99.90
52943;DHT22;38809;53.300;6.614;2022-12-24T12:23:49;9.50;99.90
52943;DHT22;38809;53.300;6.614;2022-12-24T12:26:25;9.50;99.90
52943;DHT22;38809;53.300;6.614;2022-12-24T12:28:58;9.50;99.90
52943;DHT22;38809;53.300;6.614;2022-12-24T12:33:58;9.50;99.90
52943;DHT22;38809;53.300;6.614;2022-12-24T12:39:22;9.40;99.90
52943;DHT22;38809;53.300;6.614;2022-12-24T12:44:48;9.40;99.90
52943;DHT22;38809;53.300;6.614;2022-12-24T12:53:14;9.30;99.90
52943;DHT22;38809;53.300;6.614;2022-12-24T12:58:39;9.20;99.90
52943;DHT22;38809;53.300;6.614;2022-12-24T13:01:20;9.30;99.90
52943;DHT22;38809;53.300;6.614;2022-12-24T13:06:32;9.30;99.90
52943;DHT22;38809;53.300;6.614;2022-12-24T13:09:09;9.20;99.90
52943;DHT22;38809;53.300;6.614;2022-12-24T13:12:07;9.20;99.90
52943;DHT22;38809;53.300;6.614;2022-12-24T13:15:18;9.20;99.90
52943;DHT22;38809;53.300;6.614;2022-12-24T13:17:46;9.20;99.90
52943;DHT22;38809;53.300;6.614;2022-12-24T13:27:53;9.20;99.90
52943;DHT22;38809;53.300;6.614;2022-12-24T13:32:57;9.20;99.90
52943;DHT22;38809;53.300;6.614;2022-12-24T13:37:49;9.20;99.90
52943;DHT22;38809;53.300;6.614;2022-12-24T13:40:22;9.20;99.90
52943;DHT22;38809;53.300;6.614;2022-12-24T13:53:39;9.10;99.90
52943;DHT22;38809;53.300;6.614;2022-12-24T13:56:19;9.10;99.90
52943;DHT22;38809;53.300;6.614;2022-12-24T13:58:49;9.00;99.90
52943;DHT22;38809;53.300;6.614;2022-12-24T14:01:31;9.00;99.90
52943;DHT22;38809;53.300;6.614;2022-12-24T14:03:59;8.90;99.90
52943;DHT22;38809;53.300;6.614;2022-12-24T14:06:30;8.90;99.90
52943;DHT22;38809;53.300;6.614;2022-12-24T14:16:56;8.90;99.90
52943;DHT22;38809;53.300;6.614;2022-12-24T14:19:24;8.90;99.90
52943;DHT22;38809;53.300;6.614;2022-12-24T14:22:02;8.90;99.90
52943;DHT22;38809;53.300;6.614;2022-12-24T14:24:34;8.90;99.90
52943;DHT22;38809;53.300;6.614;2022-12-24T14:27:37;8.90;99.90
52943;DHT22;38809;53.300;6.614;2022-12-24T14:30:20;8.80;99.90
52943;DHT22;38809;53.300;6.614;2022-12-24T14:32:48;8.80;99.90
52943;DHT22;38809;53.300;6.614;2022-12-24T14:35:38;8.80;99.90
52943;DHT22;38809;53.300;6.614;2022-12-24T14:38:05;8.90;99.90
52943;DHT22;38809;53.300;6.614;2022-12-24T14:40:36;8.80;99.90
52943;DHT22;38809;53.300;6.614;2022-12-24T14:43:21;8.80;99.90
52943;DHT22;38809;53.300;6.614;2022-12-24T14:46:00;8.80;99.90
52943;DHT22;38809;53.300;6.614;2022-12-24T14:48:55;8.80;99.90
52943;DHT22;38809;53.300;6.614;2022-12-24T14:57:13;8.70;99.90
52943;DHT22;38809;53.300;6.614;2022-12-24T15:05:10;8.70;99.90
52943;DHT22;38809;53.300;6.614;2022-12-24T15:07:40;8.70;99.90
52943;DHT22;38809;53.300;6.614;2022-12-24T15:10:30;8.60;99.90
52943;DHT22;38809;53.300;6.614;2022-12-24T15:13:02;8.60;99.90
52943;DHT22;38809;53.300;6.614;2022-12-24T15:15:28;8.60;99.90
52943;DHT22;38809;53.300;6.614;2022-12-24T15:17:55;8.60;99.90
52943;DHT22;38809;53.300;6.614;2022-12-24T15:20:24;8.60;99.90
52943;DHT22;38809;53.300;6.614;2022-12-24T15:22:54;8.60;99.90
52943;DHT22;38809;53.300;6.614;2022-12-24T15:25:28;8.50;99.90
52943;DHT22;38809;53.300;6.614;2022-12-24T15:27:54;8.60;99.90
52943;DHT22;38809;53.300;6.614;2022-12-24T15:30:23;8.50;99.90
52943;DHT22;38809;53.300;6.614;2022-12-24T15:32:54;8.50;99.90
52943;DHT22;38809;53.300;6.614;2022-12-24T15:38:37;8.40;99.90
52943;DHT22;38809;53.300;6.614;2022-12-24T15:41:25;8.30;99.90
52943;DHT22;38809;53.300;6.614;2022-12-24T15:43:53;8.10;99.90
52943;DHT22;38809;53.300;6.614;2022-12-24T15:46:25;8.10;99.90
52943;DHT22;38809;53.300;6.614;2022-12-24T15:48:53;8.00;99.90
52943;DHT22;38809;53.300;6.614;2022-12-24T15:51:32;7.90;99.90
52943;DHT22;38809;53.300;6.614;2022-12-24T15:54:05;7.90;99.90
52943;DHT22;38809;53.300;6.614;2022-12-24T15:56:44;7.80;99.90
52943;DHT22;38809;53.300;6.614;2022-12-24T15:59:29;7.70;99.90
52943;DHT22;38809;53.300;6.614;2022-12-24T16:01:56;7.60;99.90
52943;DHT22;38809;53.300;6.614;2022-12-24T16:04:42;7.60;99.90
52943;DHT22;38809;53.300;6.614;2022-12-24T16:07:10;7.60;99.90
52943;DHT22;38809;53.300;6.614;2022-12-24T16:09:48;7.50;99.90
52943;DHT22;38809;53.300;6.614;2022-12-24T16:12:22;7.50;99.90
52943;DHT22;38809;53.300;6.614;2022-12-24T16:14:54;7.40;99.90
52943;DHT22;38809;53.300;6.614;2022-12-24T16:17:24;7.60;99.90
52943;DHT22;38809;53.300;6.614;2022-12-24T16:19:52;7.30;99.90
52943;DHT22;38809;53.300;6.614;2022-12-24T16:22:20;7.20;99.90
52943;DHT22;38809;53.300;6.614;2022-12-24T16:24:56;7.20;99.90
52943;DHT22;38809;53.300;6.614;2022-12-24T16:27:22;7.20;99.90
52943;DHT22;38809;53.300;6.614;2022-12-24T16:29:47;7.40;99.90
52943;DHT22;38809;53.300;6.614;2022-12-24T16:34:54;7.10;99.90
52943;DHT22;38809;53.300;6.614;2022-12-24T16:37:20;7.10;99.90
52943;DHT22;38809;53.300;6.614;2022-12-24T16:39:46;7.00;99.90
52943;DHT22;38809;53.300;6.614;2022-12-24T16:42:12;7.20;99.90
52943;DHT22;38809;53.300;6.614;2022-12-24T16:44:56;7.00;99.90
52943;DHT22;38809;53.300;6.614;2022-12-24T16:47:28;7.00;99.90
52943;DHT22;38809;53.300;6.614;2022-12-24T16:49:57;6.90;99.90
52943;DHT22;38809;53.300;6.614;2022-12-24T16:52:25;7.00;99.90
52943;DHT22;38809;53.300;6.614;2022-12-24T16:54:54;6.90;99.90
52943;DHT22;38809;53.300;6.614;2022-12-24T16:57:21;7.00;99.90
52943;DHT22;38809;53.300;6.614;2022-12-24T16:59:47;6.90;99.90
52943;DHT22;38809;53.300;6.614;2022-12-24T17:02:15;6.90;99.90
52943;DHT22;38809;53.300;6.614;2022-12-24T17:04:41;6.90;99.90
52943;DHT22;38809;53.300;6.614;2022-12-24T17:07:08;6.90;99.90
52943;DHT22;38809;53.300;6.614;2022-12-24T17:09:34;7.00;99.90
52943;DHT22;38809;53.300;6.614;2022-12-24T17:12:00;7.00;99.90
52943;DHT22;38809;53.300;6.614;2022-12-24T17:14:25;6.90;99.90
52943;DHT22;38809;53.300;6.614;2022-12-24T17:16:51;6.90;99.90
52943;DHT22;38809;53.300;6.614;2022-12-24T17:19:16;6.90;99.90
52943;DHT22;38809;53.300;6.614;2022-12-24T17:21:43;6.90;99.90
52943;DHT22;38809;53.300;6.614;2022-12-24T17:24:09;6.90;99.90
52943;DHT22;38809;53.300;6.614;2022-12-24T17:26:35;6.90;99.90
52943;DHT22;38809;53.300;6.614;2022-12-24T17:29:01;6.90;99.90
52943;DHT22;38809;53.300;6.614;2022-12-24T17:31:30;6.90;99.90
52943;DHT22;38809;53.300;6.614;2022-12-24T17:33:55;6.90;99.90
52943;DHT22;38809;53.300;6.614;2022-12-24T17:36:21;6.90;99.90
52943;DHT22;38809;53.300;6.614;2022-12-24T17:38:47;6.80;99.90
52943;DHT22;38809;53.300;6.614;2022-12-24T17:41:16;6.90;99.90
52943;DHT22;38809;53.300;6.614;2022-12-24T17:43:42;6.90;99.90
52943;DHT22;38809;53.300;6.614;2022-12-24T17:46:11;6.90;99.90
52943;DHT22;38809;53.300;6.614;2022-12-24T17:48:37;6.80;99.90
52943;DHT22;38809;53.300;6.614;2022-12-24T17:51:10;6.90;99.90
52943;DHT22;38809;53.300;6.614;2022-12-24T17:53:38;6.80;99.90
52943;DHT22;38809;53.300;6.614;2022-12-24T17:56:04;6.80;99.90
52943;DHT22;38809;53.300;6.614;2022-12-24T17:58:30;6.80;99.90
52943;DHT22;38809;53.300;6.614;2022-12-24T18:00:56;6.70;99.90
52943;DHT22;38809;53.300;6.614;2022-12-24T18:03:23;6.70;99.90
52943;DHT22;38809;53.300;6.614;2022-12-24T18:05:49;6.70;99.90